sensor_id;sensor_type;location;lat;lon;timestamp;P1;durP1;ratioP1;P2;durP2;ratioP2
73508;SDS011;72120;54.964;73.444;2023-09-19T04:51:22;24.45;;;6.30;;
73508;SDS011;72120;54.964;73.444;2023-09-19T04:53:51;20.00;;;6.10;;
73508;SDS011;72120;54.964;73.444;2023-09-19T04:56:17;24.60;;;7.40;;
73508;SDS011;72120;54.964;73.444;2023-09-19T04:58:44;18.40;;;6.60;;
73508;SDS011;72120;54.964;73.444;2023-09-19T05:01:10;16.17;;;6.55;;
73508;SDS011;72120;54.964;73.444;2023-09-19T05:03:38;22.50;;;7.15;;
73508;SDS011;72120;54.964;73.444;2023-09-19T05:06:06;19.23;;;7.10;;
73508;SDS011;72120;54.964;73.444;2023-09-19T05:08:32;19.92;;;6.03;;
73508;SDS011;72120;54.964;73.444;2023-09-19T05:11:01;15.02;;;6.00;;
73508;SDS011;72120;54.964;73.444;2023-09-19T05:13:28;13.57;;;6.20;;
73508;SDS011;72120;54.964;73.444;2023-09-19T05:15:54;18.35;;;6.28;;
73508;SDS011;72120;54.964;73.444;2023-09-19T05:18:20;19.17;;;6.70;;
73508;SDS011;72120;54.964;73.444;2023-09-19T05:20:48;17.70;;;6.18;;
73508;SDS011;72120;54.964;73.444;2023-09-19T05:23:15;12.68;;;6.35;;
73508;SDS011;72120;54.964;73.444;2023-09-19T05:25:42;17.60;;;6.97;;
73508;SDS011;72120;54.964;73.444;2023-09-19T05:28:09;22.80;;;6.75;;
73508;SDS011;72120;54.964;73.444;2023-09-19T05:30:37;17.30;;;6.68;;
73508;SDS011;72120;54.964;73.444;2023-09-19T05:33:09;17.65;;;5.82;;
73508;SDS011;72120;54.964;73.444;2023-09-19T05:35:35;16.17;;;5.85;;
73508;SDS011;72120;54.964;73.444;2023-09-19T05:38:07;17.52;;;6.22;;
73508;SDS011;72120;54.964;73.444;2023-09-19T05:40:39;19.05;;;6.32;;
73508;SDS011;72120;54.964;73.444;2023-09-19T05:43:11;22.90;;;6.85;;
73508;SDS011;72120;54.964;73.444;2023-09-19T05:45:48;17.75;;;6.80;;
73508;SDS011;72120;54.964;73.444;2023-09-19T05:48:28;21.02;;;7.60;;
73508;SDS011;72120;54.964;73.444;2023-09-19T05:50:58;16.13;;;7.35;;
73508;SDS011;72120;54.964;73.444;2023-09-19T05:53:29;17.50;;;7.00;;
73508;SDS011;72120;54.964;73.444;2023-09-19T05:55:56;17.50;;;6.32;;
73508;SDS011;72120;54.964;73.444;2023-09-19T05:58:23;14.07;;;5.85;;
73508;SDS011;72120;54.964;73.444;2023-09-19T06:03:15;18.35;;;5.38;;
73508;SDS011;72120;54.964;73.444;2023-09-19T06:05:45;16.45;;;4.45;;
73508;SDS011;72120;54.964;73.444;2023-09-19T06:08:16;17.52;;;4.38;;
73508;SDS011;72120;54.964;73.444;2023-09-19T06:10:45;16.05;;;4.30;;
73508;SDS011;72120;54.964;73.444;2023-09-19T06:13:15;17.13;;;4.70;;
73508;SDS011;72120;54.964;73.444;2023-09-19T06:15:43;18.05;;;4.53;;
73508;SDS011;72120;54.964;73.444;2023-09-19T06:18:10;15.18;;;5.07;;
73508;SDS011;72120;54.964;73.444;2023-09-19T06:20:49;14.73;;;4.53;;
73508;SDS011;72120;54.964;73.444;2023-09-19T06:23:26;22.23;;;4.47;;
73508;SDS011;72120;54.964;73.444;2023-09-19T06:25:56;19.27;;;7.88;;
73508;SDS011;72120;54.964;73.444;2023-09-19T06:28:23;13.02;;;4.90;;
73508;SDS011;72120;54.964;73.444;2023-09-19T06:30:56;21.20;;;4.55;;
73508;SDS011;72120;54.964;73.444;2023-09-19T06:33:24;13.05;;;4.47;;
73508;SDS011;72120;54.964;73.444;2023-09-19T06:35:55;9.43;;;4.05;;
73508;SDS011;72120;54.964;73.444;2023-09-19T06:38:27;13.48;;;4.22;;
73508;SDS011;72120;54.964;73.444;2023-09-19T06:40:54;15.57;;;3.90;;
73508;SDS011;72120;54.964;73.444;2023-09-19T06:43:21;10.98;;;4.10;;
73508;SDS011;72120;54.964;73.444;2023-09-19T06:45:47;8.80;;;4.10;;
73508;SDS011;72120;54.964;73.444;2023-09-19T06:48:16;15.98;;;4.30;;
73508;SDS011;72120;54.964;73.444;2023-09-19T06:50:43;11.90;;;4.57;;
73508;SDS011;72120;54.964;73.444;2023-09-19T06:53:10;11.13;;;4.38;;
73508;SDS011;72120;54.964;73.444;2023-09-19T06:58:02;268.15;;;22.67;;
73508;SDS011;72120;54.964;73.444;2023-09-19T07:00:32;25.23;;;6.10;;
73508;SDS011;72120;54.964;73.444;2023-09-19T07:03:00;11.38;;;4.90;;
73508;SDS011;72120;54.964;73.444;2023-09-19T07:05:33;12.25;;;4.40;;
73508;SDS011;72120;54.964;73.444;2023-09-19T07:08:08;11.32;;;5.13;;
73508;SDS011;72120;54.964;73.444;2023-09-19T07:10:41;12.57;;;5.30;;
73508;SDS011;72120;54.964;73.444;2023-09-19T07:13:15;16.60;;;5.57;;
73508;SDS011;72120;54.964;73.444;2023-09-19T07:15:43;11.45;;;4.95;;
73508;SDS011;72120;54.964;73.444;2023-09-19T07:18:14;15.00;;;6.03;;
73508;SDS011;72120;54.964;73.444;2023-09-19T07:20:44;15.57;;;6.55;;
73508;SDS011;72120;54.964;73.444;2023-09-19T07:23:21;15.68;;;5.78;;
73508;SDS011;72120;54.964;73.444;2023-09-19T07:25:56;18.20;;;6.30;;
73508;SDS011;72120;54.964;73.444;2023-09-19T07:28:23;18.85;;;6.03;;
73508;SDS011;72120;54.964;73.444;2023-09-19T07:31:01;14.45;;;6.00;;
73508;SDS011;72120;54.964;73.444;2023-09-19T07:33:29;20.65;;;5.82;;
73508;SDS011;72120;54.964;73.444;2023-09-19T07:35:55;16.98;;;6.70;;
73508;SDS011;72120;54.964;73.444;2023-09-19T07:38:21;20.15;;;5.32;;
73508;SDS011;72120;54.964;73.444;2023-09-19T07:40:48;18.80;;;6.15;;
73508;SDS011;72120;54.964;73.444;2023-09-19T07:45:41;17.73;;;5.97;;
73508;SDS011;72120;54.964;73.444;2023-09-19T07:48:12;12.10;;;5.05;;
73508;SDS011;72120;54.964;73.444;2023-09-19T07:50:43;15.65;;;6.68;;
73508;SDS011;72120;54.964;73.444;2023-09-19T07:53:12;9.25;;;4.65;;
73508;SDS011;72120;54.964;73.444;2023-09-19T07:55:43;16.15;;;5.20;;
73508;SDS011;72120;54.964;73.444;2023-09-19T07:58:17;11.30;;;4.85;;
73508;SDS011;72120;54.964;73.444;2023-09-19T08:00:51;16.70;;;5.10;;
73508;SDS011;72120;54.964;73.444;2023-09-19T08:03:17;12.85;;;5.07;;
73508;SDS011;72120;54.964;73.444;2023-09-19T08:05:55;15.30;;;5.07;;
73508;SDS011;72120;54.964;73.444;2023-09-19T08:08:25;11.70;;;5.40;;
73508;SDS011;72120;54.964;73.444;2023-09-19T08:10:53;15.18;;;5.28;;
73508;SDS011;72120;54.964;73.444;2023-09-19T08:13:22;14.48;;;5.18;;
73508;SDS011;72120;54.964;73.444;2023-09-19T08:15:50;20.27;;;5.60;;
73508;SDS011;72120;54.964;73.444;2023-09-19T08:18:21;21.90;;;5.80;;
73508;SDS011;72120;54.964;73.444;2023-09-19T08:20:52;13.60;;;5.13;;
73508;SDS011;72120;54.964;73.444;2023-09-19T08:23:26;16.75;;;8.07;;
73508;SDS011;72120;54.964;73.444;2023-09-19T08:25:56;13.45;;;5.68;;
73508;SDS011;72120;54.964;73.444;2023-09-19T08:28:32;13.25;;;5.88;;
73508;SDS011;72120;54.964;73.444;2023-09-19T08:31:03;14.52;;;4.50;;
73508;SDS011;72120;54.964;73.444;2023-09-19T08:33:37;11.00;;;4.93;;
73508;SDS011;72120;54.964;73.444;2023-09-19T08:36:14;8.77;;;4.30;;
73508;SDS011;72120;54.964;73.444;2023-09-19T08:38:41;16.02;;;4.65;;
73508;SDS011;72120;54.964;73.444;2023-09-19T08:41:12;9.13;;;3.95;;
73508;SDS011;72120;54.964;73.444;2023-09-19T08:43:38;15.35;;;7.28;;
73508;SDS011;72120;54.964;73.444;2023-09-19T08:46:11;9.15;;;4.72;;
73508;SDS011;72120;54.964;73.444;2023-09-19T08:49:27;9.57;;;4.20;;
73508;SDS011;72120;54.964;73.444;2023-09-19T08:51:42;12.07;;;3.75;;
73508;SDS011;72120;54.964;73.444;2023-09-19T08:54:22;11.00;;;4.22;;
73508;SDS011;72120;54.964;73.444;2023-09-19T08:57:08;14.55;;;4.20;;
73508;SDS011;72120;54.964;73.444;2023-09-19T08:59:38;16.77;;;6.82;;
73508;SDS011;72120;54.964;73.444;2023-09-19T09:02:12;22.00;;;5.25;;
73508;SDS011;72120;54.964;73.444;2023-09-19T09:04:46;9.10;;;4.25;;
73508;SDS011;72120;54.964;73.444;2023-09-19T09:07:15;14.18;;;4.80;;
73508;SDS011;72120;54.964;73.444;2023-09-19T09:09:43;8.30;;;3.90;;
73508;SDS011;72120;54.964;73.444;2023-09-19T09:12:21;8.82;;;4.25;;
73508;SDS011;72120;54.964;73.444;2023-09-19T09:14:56;9.90;;;4.00;;
73508;SDS011;72120;54.964;73.444;2023-09-19T09:17:23;9.70;;;4.80;;
73508;SDS011;72120;54.964;73.444;2023-09-19T09:19:53;7.13;;;3.92;;
73508;SDS011;72120;54.964;73.444;2023-09-19T09:22:20;11.88;;;4.65;;
73508;SDS011;72120;54.964;73.444;2023-09-19T09:24:53;6.32;;;3.92;;
73508;SDS011;72120;54.964;73.444;2023-09-19T09:27:31;9.18;;;4.15;;
73508;SDS011;72120;54.964;73.444;2023-09-19T09:29:58;8.60;;;4.28;;
73508;SDS011;72120;54.964;73.444;2023-09-19T09:32:30;13.23;;;4.55;;
73508;SDS011;72120;54.964;73.444;2023-09-19T09:35:07;11.98;;;4.82;;
73508;SDS011;72120;54.964;73.444;2023-09-19T09:37:37;11.18;;;5.28;;
73508;SDS011;72120;54.964;73.444;2023-09-19T09:40:05;11.10;;;5.82;;
73508;SDS011;72120;54.964;73.444;2023-09-19T09:42:41;13.00;;;4.80;;
73508;SDS011;72120;54.964;73.444;2023-09-19T09:48:04;15.90;;;5.30;;
73508;SDS011;72120;54.964;73.444;2023-09-19T09:50:46;12.43;;;5.50;;
73508;SDS011;72120;54.964;73.444;2023-09-19T09:53:24;22.02;;;6.15;;
73508;SDS011;72120;54.964;73.444;2023-09-19T09:55:57;22.83;;;6.70;;
73508;SDS011;72120;54.964;73.444;2023-09-19T09:58:25;11.85;;;5.75;;
73508;SDS011;72120;54.964;73.444;2023-09-19T10:00:57;19.17;;;6.00;;
73508;SDS011;72120;54.964;73.444;2023-09-19T10:03:39;8.95;;;5.10;;
73508;SDS011;72120;54.964;73.444;2023-09-19T10:06:12;11.55;;;5.63;;
73508;SDS011;72120;54.964;73.444;2023-09-19T10:11:44;15.05;;;5.18;;
73508;SDS011;72120;54.964;73.444;2023-09-19T10:14:15;11.60;;;4.38;;
73508;SDS011;72120;54.964;73.444;2023-09-19T10:16:46;9.70;;;4.68;;
73508;SDS011;72120;54.964;73.444;2023-09-19T10:19:25;18.80;;;5.10;;
73508;SDS011;72120;54.964;73.444;2023-09-19T10:21:56;9.70;;;4.35;;
73508;SDS011;72120;54.964;73.444;2023-09-19T10:24:24;9.20;;;4.72;;
73508;SDS011;72120;54.964;73.444;2023-09-19T10:26:52;12.55;;;5.55;;
73508;SDS011;72120;54.964;73.444;2023-09-19T10:29:20;15.80;;;5.20;;
73508;SDS011;72120;54.964;73.444;2023-09-19T10:31:49;15.20;;;5.10;;
73508;SDS011;72120;54.964;73.444;2023-09-19T10:34:19;14.95;;;5.57;;
73508;SDS011;72120;54.964;73.444;2023-09-19T10:36:55;13.50;;;5.63;;
73508;SDS011;72120;54.964;73.444;2023-09-19T10:41:53;12.60;;;5.47;;
73508;SDS011;72120;54.964;73.444;2023-09-19T10:44:25;14.50;;;5.80;;
73508;SDS011;72120;54.964;73.444;2023-09-19T10:47:00;12.38;;;5.53;;
73508;SDS011;72120;54.964;73.444;2023-09-19T10:49:30;11.27;;;5.18;;
73508;SDS011;72120;54.964;73.444;2023-09-19T10:51:58;14.15;;;5.07;;
73508;SDS011;72120;54.964;73.444;2023-09-19T10:54:33;14.50;;;5.50;;
73508;SDS011;72120;54.964;73.444;2023-09-19T10:57:04;14.77;;;5.93;;
73508;SDS011;72120;54.964;73.444;2023-09-19T10:59:38;17.70;;;6.05;;
73508;SDS011;72120;54.964;73.444;2023-09-19T11:05:35;17.42;;;5.68;;
73508;SDS011;72120;54.964;73.444;2023-09-19T11:08:08;18.83;;;5.90;;
73508;SDS011;72120;54.964;73.444;2023-09-19T11:10:50;16.25;;;5.88;;
73508;SDS011;72120;54.964;73.444;2023-09-19T11:13:28;11.73;;;5.13;;
73508;SDS011;72120;54.964;73.444;2023-09-19T11:16:07;15.65;;;5.55;;
73508;SDS011;72120;54.964;73.444;2023-09-19T11:26:48;13.95;;;5.90;;
73508;SDS011;72120;54.964;73.444;2023-09-19T11:29:23;18.40;;;6.90;;
73508;SDS011;72120;54.964;73.444;2023-09-19T11:31:51;16.90;;;6.43;;
73508;SDS011;72120;54.964;73.444;2023-09-19T11:34:44;12.30;;;6.45;;
73508;SDS011;72120;54.964;73.444;2023-09-19T11:42:46;19.83;;;6.60;;
73508;SDS011;72120;54.964;73.444;2023-09-19T11:48:32;14.43;;;6.22;;
73508;SDS011;72120;54.964;73.444;2023-09-19T11:50:59;16.92;;;6.30;;
73508;SDS011;72120;54.964;73.444;2023-09-19T11:53:31;20.08;;;7.70;;
73508;SDS011;72120;54.964;73.444;2023-09-19T11:56:04;18.92;;;7.95;;
73508;SDS011;72120;54.964;73.444;2023-09-19T11:58:33;18.65;;;7.18;;
73508;SDS011;72120;54.964;73.444;2023-09-19T12:01:03;13.30;;;6.95;;
73508;SDS011;72120;54.964;73.444;2023-09-19T12:03:39;18.73;;;7.20;;
73508;SDS011;72120;54.964;73.444;2023-09-19T12:06:16;14.98;;;6.57;;
73508;SDS011;72120;54.964;73.444;2023-09-19T12:08:52;14.32;;;6.53;;
73508;SDS011;72120;54.964;73.444;2023-09-19T12:11:21;19.17;;;6.50;;
73508;SDS011;72120;54.964;73.444;2023-09-19T12:13:57;13.35;;;6.18;;
73508;SDS011;72120;54.964;73.444;2023-09-19T12:16:27;14.13;;;6.57;;
73508;SDS011;72120;54.964;73.444;2023-09-19T12:18:58;17.77;;;6.38;;
73508;SDS011;72120;54.964;73.444;2023-09-19T12:24:45;18.33;;;6.75;;
73508;SDS011;72120;54.964;73.444;2023-09-19T12:27:12;18.05;;;6.90;;
73508;SDS011;72120;54.964;73.444;2023-09-19T12:29:47;19.67;;;7.15;;
73508;SDS011;72120;54.964;73.444;2023-09-19T12:32:34;17.80;;;6.55;;
73508;SDS011;72120;54.964;73.444;2023-09-19T12:35:03;19.50;;;6.55;;
73508;SDS011;72120;54.964;73.444;2023-09-19T12:37:33;13.43;;;6.40;;
73508;SDS011;72120;54.964;73.444;2023-09-19T12:40:08;16.40;;;6.20;;
73508;SDS011;72120;54.964;73.444;2023-09-19T12:42:49;22.00;;;6.90;;
73508;SDS011;72120;54.964;73.444;2023-09-19T12:45:15;17.60;;;6.28;;
73508;SDS011;72120;54.964;73.444;2023-09-19T12:53:37;18.70;;;7.78;;
73508;SDS011;72120;54.964;73.444;2023-09-19T12:56:16;20.63;;;8.38;;
73508;SDS011;72120;54.964;73.444;2023-09-19T12:58:51;20.83;;;7.65;;
73508;SDS011;72120;54.964;73.444;2023-09-19T13:01:22;17.63;;;7.35;;
73508;SDS011;72120;54.964;73.444;2023-09-19T13:06:46;53.58;;;10.18;;
73508;SDS011;72120;54.964;73.444;2023-09-19T13:09:15;31.40;;;9.50;;
73508;SDS011;72120;54.964;73.444;2023-09-19T13:11:42;32.05;;;8.52;;
73508;SDS011;72120;54.964;73.444;2023-09-19T13:14:15;26.60;;;8.48;;
73508;SDS011;72120;54.964;73.444;2023-09-19T13:25:13;20.25;;;9.13;;
73508;SDS011;72120;54.964;73.444;2023-09-19T13:27:47;18.85;;;7.25;;
73508;SDS011;72120;54.964;73.444;2023-09-19T13:30:19;17.92;;;8.43;;
73508;SDS011;72120;54.964;73.444;2023-09-19T13:32:46;22.67;;;8.85;;
73508;SDS011;72120;54.964;73.444;2023-09-19T13:35:14;21.38;;;7.97;;
73508;SDS011;72120;54.964;73.444;2023-09-19T13:37:43;17.30;;;7.75;;
73508;SDS011;72120;54.964;73.444;2023-09-19T13:40:15;16.05;;;7.70;;
73508;SDS011;72120;54.964;73.444;2023-09-19T13:42:42;18.02;;;7.38;;
73508;SDS011;72120;54.964;73.444;2023-09-19T13:45:09;17.70;;;7.78;;
73508;SDS011;72120;54.964;73.444;2023-09-19T13:47:38;14.30;;;6.78;;
73508;SDS011;72120;54.964;73.444;2023-09-19T13:50:05;16.92;;;8.00;;
73508;SDS011;72120;54.964;73.444;2023-09-19T13:52:38;18.60;;;8.70;;
73508;SDS011;72120;54.964;73.444;2023-09-19T13:55:09;24.67;;;12.25;;
73508;SDS011;72120;54.964;73.444;2023-09-19T13:57:37;21.77;;;10.32;;
73508;SDS011;72120;54.964;73.444;2023-09-19T14:00:03;18.50;;;9.82;;
73508;SDS011;72120;54.964;73.444;2023-09-19T14:02:39;20.00;;;10.88;;
73508;SDS011;72120;54.964;73.444;2023-09-19T14:05:19;24.75;;;11.45;;
73508;SDS011;72120;54.964;73.444;2023-09-19T14:08:06;25.50;;;12.15;;
73508;SDS011;72120;54.964;73.444;2023-09-19T14:10:32;22.58;;;12.52;;
73508;SDS011;72120;54.964;73.444;2023-09-19T14:13:00;25.13;;;13.32;;
73508;SDS011;72120;54.964;73.444;2023-09-19T14:15:27;32.15;;;13.20;;
73508;SDS011;72120;54.964;73.444;2023-09-19T14:17:57;25.85;;;13.18;;
73508;SDS011;72120;54.964;73.444;2023-09-19T14:20:25;25.05;;;12.77;;
73508;SDS011;72120;54.964;73.444;2023-09-19T14:23:02;30.40;;;13.25;;
73508;SDS011;72120;54.964;73.444;2023-09-19T14:25:29;30.92;;;13.77;;
73508;SDS011;72120;54.964;73.444;2023-09-19T14:27:58;27.15;;;14.30;;
73508;SDS011;72120;54.964;73.444;2023-09-19T14:30:24;39.17;;;15.38;;
73508;SDS011;72120;54.964;73.444;2023-09-19T14:32:50;35.00;;;15.70;;
73508;SDS011;72120;54.964;73.444;2023-09-19T14:37:43;33.88;;;16.65;;
73508;SDS011;72120;54.964;73.444;2023-09-19T14:40:15;32.20;;;16.52;;
73508;SDS011;72120;54.964;73.444;2023-09-19T14:42:43;31.38;;;16.30;;
73508;SDS011;72120;54.964;73.444;2023-09-19T14:45:12;40.85;;;19.73;;
73508;SDS011;72120;54.964;73.444;2023-09-19T14:47:42;54.00;;;23.13;;
73508;SDS011;72120;54.964;73.444;2023-09-19T14:50:08;38.65;;;18.95;;
73508;SDS011;72120;54.964;73.444;2023-09-19T14:52:36;78.20;;;24.10;;
73508;SDS011;72120;54.964;73.444;2023-09-19T14:55:02;91.88;;;25.42;;
73508;SDS011;72120;54.964;73.444;2023-09-19T14:57:31;61.03;;;22.88;;
73508;SDS011;72120;54.964;73.444;2023-09-19T15:02:24;67.38;;;22.42;;
73508;SDS011;72120;54.964;73.444;2023-09-19T15:04:52;64.90;;;23.90;;
73508;SDS011;72120;54.964;73.444;2023-09-19T15:07:19;58.22;;;23.75;;
73508;SDS011;72120;54.964;73.444;2023-09-19T15:09:51;52.63;;;23.38;;
73508;SDS011;72120;54.964;73.444;2023-09-19T15:12:19;54.35;;;25.13;;
73508;SDS011;72120;54.964;73.444;2023-09-19T15:14:55;53.13;;;22.88;;
73508;SDS011;72120;54.964;73.444;2023-09-19T15:17:25;41.88;;;22.45;;
73508;SDS011;72120;54.964;73.444;2023-09-19T15:19:53;44.30;;;23.40;;
73508;SDS011;72120;54.964;73.444;2023-09-19T15:22:30;52.63;;;26.00;;
73508;SDS011;72120;54.964;73.444;2023-09-19T15:24:59;47.50;;;25.00;;
73508;SDS011;72120;54.964;73.444;2023-09-19T15:27:37;55.33;;;25.77;;
73508;SDS011;72120;54.964;73.444;2023-09-19T15:30:07;49.97;;;26.00;;
73508;SDS011;72120;54.964;73.444;2023-09-19T15:32:40;49.25;;;25.98;;
73508;SDS011;72120;54.964;73.444;2023-09-19T15:35:19;47.72;;;25.55;;
73508;SDS011;72120;54.964;73.444;2023-09-19T15:37:57;47.00;;;25.58;;
73508;SDS011;72120;54.964;73.444;2023-09-19T15:40:33;46.15;;;23.92;;
73508;SDS011;72120;54.964;73.444;2023-09-19T15:43:05;48.72;;;23.20;;
73508;SDS011;72120;54.964;73.444;2023-09-19T15:45:34;35.80;;;20.50;;
73508;SDS011;72120;54.964;73.444;2023-09-19T15:48:02;42.28;;;19.67;;
73508;SDS011;72120;54.964;73.444;2023-09-19T15:50:35;36.53;;;18.67;;
73508;SDS011;72120;54.964;73.444;2023-09-19T15:53:02;31.35;;;17.33;;
73508;SDS011;72120;54.964;73.444;2023-09-19T15:55:32;36.15;;;18.38;;
73508;SDS011;72120;54.964;73.444;2023-09-19T15:58:07;32.00;;;14.30;;
73508;SDS011;72120;54.964;73.444;2023-09-19T16:00:44;31.65;;;13.23;;
73508;SDS011;72120;54.964;73.444;2023-09-19T16:03:11;34.63;;;15.45;;
73508;SDS011;72120;54.964;73.444;2023-09-19T16:05:53;30.00;;;15.15;;
73508;SDS011;72120;54.964;73.444;2023-09-19T16:08:38;25.50;;;13.38;;
73508;SDS011;72120;54.964;73.444;2023-09-19T16:11:18;29.52;;;15.43;;
73508;SDS011;72120;54.964;73.444;2023-09-19T16:14:04;33.33;;;16.08;;
73508;SDS011;72120;54.964;73.444;2023-09-19T16:16:52;31.30;;;16.08;;
73508;SDS011;72120;54.964;73.444;2023-09-19T16:19:36;26.15;;;14.88;;
73508;SDS011;72120;54.964;73.444;2023-09-19T16:22:24;28.00;;;13.98;;
73508;SDS011;72120;54.964;73.444;2023-09-19T16:24:52;26.38;;;14.63;;
73508;SDS011;72120;54.964;73.444;2023-09-19T16:27:18;27.23;;;15.20;;
73508;SDS011;72120;54.964;73.444;2023-09-19T16:29:47;31.35;;;14.30;;
73508;SDS011;72120;54.964;73.444;2023-09-19T16:32:17;29.83;;;15.00;;
73508;SDS011;72120;54.964;73.444;2023-09-19T16:34:44;34.75;;;15.65;;
73508;SDS011;72120;54.964;73.444;2023-09-19T16:37:10;30.95;;;15.25;;
73508;SDS011;72120;54.964;73.444;2023-09-19T16:39:40;29.08;;;14.05;;
73508;SDS011;72120;54.964;73.444;2023-09-19T16:42:08;31.27;;;15.90;;
73508;SDS011;72120;54.964;73.444;2023-09-19T16:44:34;28.23;;;13.68;;
73508;SDS011;72120;54.964;73.444;2023-09-19T16:47:01;25.20;;;13.73;;
73508;SDS011;72120;54.964;73.444;2023-09-19T16:49:32;28.27;;;14.40;;
73508;SDS011;72120;54.964;73.444;2023-09-19T16:52:09;24.80;;;13.70;;
73508;SDS011;72120;54.964;73.444;2023-09-19T16:54:40;23.58;;;12.95;;
73508;SDS011;72120;54.964;73.444;2023-09-19T16:57:10;26.98;;;12.85;;
73508;SDS011;72120;54.964;73.444;2023-09-19T16:59:37;24.88;;;13.20;;
73508;SDS011;72120;54.964;73.444;2023-09-19T17:02:13;28.00;;;13.18;;
73508;SDS011;72120;54.964;73.444;2023-09-19T17:04:44;26.20;;;13.50;;
73508;SDS011;72120;54.964;73.444;2023-09-19T17:07:11;27.55;;;13.60;;
73508;SDS011;72120;54.964;73.444;2023-09-19T17:09:37;28.40;;;13.20;;
73508;SDS011;72120;54.964;73.444;2023-09-19T17:12:04;22.55;;;12.82;;
73508;SDS011;72120;54.964;73.444;2023-09-19T17:14:33;24.98;;;12.70;;
73508;SDS011;72120;54.964;73.444;2023-09-19T17:17:01;28.30;;;13.60;;
73508;SDS011;72120;54.964;73.444;2023-09-19T17:19:28;24.70;;;11.63;;
73508;SDS011;72120;54.964;73.444;2023-09-19T17:21:55;25.50;;;12.88;;
73508;SDS011;72120;54.964;73.444;2023-09-19T17:24:21;22.83;;;11.52;;
73508;SDS011;72120;54.964;73.444;2023-09-19T17:26:48;23.80;;;12.13;;
73508;SDS011;72120;54.964;73.444;2023-09-19T17:29:14;20.35;;;11.93;;
73508;SDS011;72120;54.964;73.444;2023-09-19T17:31:41;26.08;;;11.52;;
73508;SDS011;72120;54.964;73.444;2023-09-19T17:34:09;20.08;;;12.18;;
73508;SDS011;72120;54.964;73.444;2023-09-19T17:36:35;21.48;;;12.57;;
73508;SDS011;72120;54.964;73.444;2023-09-19T17:39:02;26.33;;;12.95;;
73508;SDS011;72120;54.964;73.444;2023-09-19T17:41:30;23.65;;;11.55;;
73508;SDS011;72120;54.964;73.444;2023-09-19T17:46:26;24.95;;;12.02;;
73508;SDS011;72120;54.964;73.444;2023-09-19T17:48:55;22.63;;;12.90;;
73508;SDS011;72120;54.964;73.444;2023-09-19T17:51:23;25.40;;;13.23;;
73508;SDS011;72120;54.964;73.444;2023-09-19T17:53:49;19.75;;;13.13;;
73508;SDS011;72120;54.964;73.444;2023-09-19T17:56:16;27.77;;;13.85;;
73508;SDS011;72120;54.964;73.444;2023-09-19T17:58:45;30.65;;;16.27;;
73508;SDS011;72120;54.964;73.444;2023-09-19T18:01:17;25.33;;;12.30;;
73508;SDS011;72120;54.964;73.444;2023-09-19T18:03:48;22.15;;;12.40;;
73508;SDS011;72120;54.964;73.444;2023-09-19T18:06:22;21.88;;;12.13;;
73508;SDS011;72120;54.964;73.444;2023-09-19T18:08:49;25.50;;;11.65;;
73508;SDS011;72120;54.964;73.444;2023-09-19T18:11:19;25.73;;;12.45;;
73508;SDS011;72120;54.964;73.444;2023-09-19T18:13:51;21.52;;;12.50;;
73508;SDS011;72120;54.964;73.444;2023-09-19T18:16:23;29.33;;;12.77;;
73508;SDS011;72120;54.964;73.444;2023-09-19T18:18:59;25.50;;;13.45;;
73508;SDS011;72120;54.964;73.444;2023-09-19T18:21:27;24.55;;;13.30;;
73508;SDS011;72120;54.964;73.444;2023-09-19T18:23:54;24.98;;;14.77;;
73508;SDS011;72120;54.964;73.444;2023-09-19T18:26:28;28.30;;;14.48;;
73508;SDS011;72120;54.964;73.444;2023-09-19T18:28:55;28.48;;;14.23;;
73508;SDS011;72120;54.964;73.444;2023-09-19T18:33:54;30.38;;;13.90;;
73508;SDS011;72120;54.964;73.444;2023-09-19T18:36:43;28.17;;;15.15;;
73508;SDS011;72120;54.964;73.444;2023-09-19T18:39:12;30.50;;;14.85;;
73508;SDS011;72120;54.964;73.444;2023-09-19T18:41:53;25.52;;;13.65;;
73508;SDS011;72120;54.964;73.444;2023-09-19T18:44:25;29.98;;;14.98;;
73508;SDS011;72120;54.964;73.444;2023-09-19T18:46:58;28.60;;;14.98;;
73508;SDS011;72120;54.964;73.444;2023-09-19T18:49:33;25.45;;;13.80;;
73508;SDS011;72120;54.964;73.444;2023-09-19T18:52:08;20.67;;;13.90;;
73508;SDS011;72120;54.964;73.444;2023-09-19T18:54:42;25.55;;;13.98;;
73508;SDS011;72120;54.964;73.444;2023-09-19T18:57:19;27.08;;;13.50;;
73508;SDS011;72120;54.964;73.444;2023-09-19T18:59:54;26.08;;;12.68;;
73508;SDS011;72120;54.964;73.444;2023-09-19T19:02:29;23.83;;;12.40;;
73508;SDS011;72120;54.964;73.444;2023-09-19T19:05:00;22.55;;;12.23;;
73508;SDS011;72120;54.964;73.444;2023-09-19T19:07:32;25.25;;;13.15;;
73508;SDS011;72120;54.964;73.444;2023-09-19T19:10:06;25.17;;;13.60;;
73508;SDS011;72120;54.964;73.444;2023-09-19T19:12:38;28.80;;;12.15;;
73508;SDS011;72120;54.964;73.444;2023-09-19T19:15:05;24.10;;;11.75;;
73508;SDS011;72120;54.964;73.444;2023-09-19T19:17:34;23.63;;;11.93;;
73508;SDS011;72120;54.964;73.444;2023-09-19T19:20:02;23.27;;;11.68;;
73508;SDS011;72120;54.964;73.444;2023-09-19T19:22:34;20.63;;;10.55;;
73508;SDS011;72120;54.964;73.444;2023-09-19T19:25:03;20.52;;;10.27;;
73508;SDS011;72120;54.964;73.444;2023-09-19T19:27:34;18.17;;;10.48;;
73508;SDS011;72120;54.964;73.444;2023-09-19T19:30:02;21.00;;;10.05;;
73508;SDS011;72120;54.964;73.444;2023-09-19T19:32:31;18.88;;;10.00;;
73508;SDS011;72120;54.964;73.444;2023-09-19T19:35:01;18.23;;;9.82;;
73508;SDS011;72120;54.964;73.444;2023-09-19T19:37:35;19.98;;;9.43;;
73508;SDS011;72120;54.964;73.444;2023-09-19T19:40:02;16.67;;;9.77;;
73508;SDS011;72120;54.964;73.444;2023-09-19T19:42:31;20.25;;;9.90;;
73508;SDS011;72120;54.964;73.444;2023-09-19T19:45:05;25.17;;;12.40;;
73508;SDS011;72120;54.964;73.444;2023-09-19T19:47:38;24.05;;;12.00;;
73508;SDS011;72120;54.964;73.444;2023-09-19T19:50:05;22.67;;;11.95;;
73508;SDS011;72120;54.964;73.444;2023-09-19T19:52:38;25.83;;;10.80;;
73508;SDS011;72120;54.964;73.444;2023-09-19T19:55:05;19.60;;;10.18;;
73508;SDS011;72120;54.964;73.444;2023-09-19T20:00:02;26.67;;;11.70;;
73508;SDS011;72120;54.964;73.444;2023-09-19T20:02:33;20.33;;;10.70;;
73508;SDS011;72120;54.964;73.444;2023-09-19T20:05:01;22.20;;;11.23;;
73508;SDS011;72120;54.964;73.444;2023-09-19T20:07:29;18.48;;;10.02;;
73508;SDS011;72120;54.964;73.444;2023-09-19T20:09:56;19.55;;;10.25;;
73508;SDS011;72120;54.964;73.444;2023-09-19T20:14:48;22.67;;;10.35;;
73508;SDS011;72120;54.964;73.444;2023-09-19T20:17:14;21.73;;;11.13;;
73508;SDS011;72120;54.964;73.444;2023-09-19T20:19:41;33.90;;;14.25;;
73508;SDS011;72120;54.964;73.444;2023-09-19T20:22:07;23.65;;;10.60;;
73508;SDS011;72120;54.964;73.444;2023-09-19T20:24:36;19.92;;;10.43;;
73508;SDS011;72120;54.964;73.444;2023-09-19T20:27:03;23.92;;;10.77;;
73508;SDS011;72120;54.964;73.444;2023-09-19T20:29:33;21.70;;;9.90;;
73508;SDS011;72120;54.964;73.444;2023-09-19T20:31:59;17.52;;;9.75;;
73508;SDS011;72120;54.964;73.444;2023-09-19T20:34:26;19.17;;;9.68;;
73508;SDS011;72120;54.964;73.444;2023-09-19T20:36:52;20.60;;;9.63;;
73508;SDS011;72120;54.964;73.444;2023-09-19T20:39:18;19.45;;;9.77;;